createdAt,value
2019-01-25T00:01:17.382Z,28.87
2019-01-25T00:04:07.110Z,26.93
2019-01-25T00:06:49.700Z,27.77
2019-01-25T00:09:39.456Z,29.63
2019-01-25T00:12:22.448Z,27.30
2019-01-25T00:15:12.670Z,31.37
2019-01-25T00:17:54.718Z,26.80
2019-01-25T00:20:44.534Z,31.67
2019-01-25T00:23:27.654Z,26.57
2019-01-25T00:26:36.840Z,27.60
2019-01-25T00:29:21.602Z,24.27
2019-01-25T00:32:12.299Z,26.67
2019-01-25T00:34:55.782Z,27.37
2019-01-25T00:37:45.549Z,28.83
2019-01-25T00:40:27.438Z,26.27
2019-01-25T00:43:11.766Z,27.40
2019-01-25T00:46:01.493Z,28.03
2019-01-25T00:48:44.878Z,28.83
2019-01-25T00:54:17.870Z,28.60
2019-01-25T00:57:07.642Z,28.57
2019-01-25T00:59:50.359Z,31.50
2019-01-25T01:02:40.496Z,28.00
2019-01-25T01:05:22.786Z,27.40
2019-01-25T01:08:12.560Z,29.10
2019-01-25T01:10:54.937Z,29.17
2019-01-25T01:13:44.718Z,28.37
2019-01-25T01:16:30.654Z,30.37
2019-01-25T01:19:20.393Z,28.07
2019-01-25T01:22:02.483Z,27.37
2019-01-25T01:24:52.246Z,30.57
2019-01-25T01:27:42.076Z,24.33
2019-01-25T01:30:24.486Z,26.00
2019-01-25T01:33:14.274Z,28.63
2019-01-25T01:36:04.023Z,31.70
2019-01-25T01:38:46.487Z,29.20
2019-01-25T01:41:36.281Z,29.80
2019-01-25T01:44:26.929Z,31.63
2019-01-25T01:47:10.535Z,29.87
2019-01-25T01:50:00.281Z,28.90
2019-01-25T01:52:51.289Z,32.93
2019-01-25T01:55:41.043Z,33.13
2019-01-25T01:58:43.593Z,34.30
2019-01-25T02:01:26.000Z,31.80
2019-01-25T02:04:15.744Z,31.50
2019-01-25T02:06:58.153Z,33.13
2019-01-25T02:09:47.913Z,32.77
2019-01-25T02:12:30.065Z,34.47
2019-01-25T02:15:20.709Z,31.90
2019-01-25T02:18:03.288Z,34.27
2019-01-25T02:20:53.077Z,34.43
2019-01-25T02:23:35.613Z,34.43
2019-01-25T02:26:25.374Z,31.87
2019-01-25T02:29:08.321Z,33.50
2019-01-25T02:31:58.095Z,31.23
2019-01-25T02:34:40.490Z,30.90
2019-01-25T02:37:30.265Z,31.33
2019-01-25T02:40:13.423Z,33.27
2019-01-25T02:43:03.201Z,30.00
2019-01-25T02:45:46.873Z,32.13
2019-01-25T02:48:36.603Z,31.30
2019-01-25T02:51:26.461Z,34.20
2019-01-25T02:54:16.194Z,33.73
2019-01-25T02:57:00.699Z,31.80
2019-01-25T02:59:50.428Z,32.70
2019-01-25T03:02:32.794Z,36.70
2019-01-25T03:05:22.951Z,33.43
2019-01-25T03:08:04.853Z,33.20
2019-01-25T03:10:54.642Z,35.57
2019-01-25T03:13:37.361Z,36.67
2019-01-25T03:16:27.073Z,33.57
2019-01-25T03:19:09.000Z,33.33
2019-01-25T03:21:58.739Z,34.40
2019-01-25T03:24:42.158Z,34.97
2019-01-25T03:27:31.916Z,31.03
2019-01-25T03:30:15.192Z,33.60
2019-01-25T03:33:04.956Z,32.00
2019-01-25T03:35:48.719Z,34.43
2019-01-25T03:38:38.461Z,34.00
2019-01-25T03:41:21.138Z,32.90
2019-01-25T03:47:11.917Z,35.67
2019-01-25T04:08:22.182Z,32.17
2019-01-25T04:11:11.956Z,31.83
2019-01-25T04:13:56.010Z,38.97
2019-01-25T04:16:45.771Z,38.47
2019-01-25T04:19:28.113Z,36.70
2019-01-25T04:22:17.889Z,38.77
2019-01-25T04:25:00.486Z,35.43
2019-01-25T04:27:31.198Z,32.57
2019-01-25T04:30:22.978Z,37.60
2019-01-25T04:33:05.935Z,37.60
2019-01-25T04:35:36.605Z,37.33
2019-01-25T04:38:26.387Z,36.60
2019-01-25T04:41:11.710Z,40.80
2019-01-25T04:43:59.975Z,38.93
2019-01-25T04:46:49.808Z,34.50
2019-01-25T04:49:39.691Z,33.63
2019-01-25T04:52:29.526Z,34.67
2019-01-25T04:55:21.576Z,32.60
2019-01-25T04:58:34.630Z,35.63
2019-01-25T05:01:16.892Z,31.93
2019-01-25T05:03:47.565Z,35.67
2019-01-25T05:09:37.373Z,36.83
2019-01-25T05:12:27.110Z,35.63
2019-01-25T05:15:10.097Z,34.33
2019-01-25T05:17:57.009Z,35.57
2019-01-25T05:20:39.142Z,34.37
2019-01-25T05:23:28.947Z,35.73
2019-01-25T05:26:21.791Z,35.13
2019-01-25T05:29:24.961Z,37.57
2019-01-25T05:32:07.157Z,34.33
2019-01-25T05:34:56.952Z,36.40
2019-01-25T05:37:39.321Z,38.57
2019-01-25T05:40:29.047Z,35.93
2019-01-25T05:43:11.889Z,37.80
2019-01-25T05:46:01.630Z,34.17
2019-01-25T05:48:44.144Z,36.07
2019-01-25T05:51:33.961Z,37.97
2019-01-25T05:54:16.129Z,46.33
2019-01-25T05:57:05.885Z,33.37
2019-01-25T05:59:48.088Z,39.17
2019-01-25T06:02:37.871Z,37.33
2019-01-25T06:05:19.999Z,39.43
2019-01-25T06:08:32.339Z,40.00
2019-01-25T06:11:15.313Z,34.40
2019-01-25T06:14:05.075Z,32.20
2019-01-25T06:16:47.339Z,36.57
2019-01-25T06:19:40.100Z,32.80
2019-01-25T06:22:22.163Z,36.37
2019-01-25T06:25:05.547Z,39.37
2019-01-25T06:27:55.280Z,41.67
2019-01-25T06:30:37.843Z,40.17
2019-01-25T06:33:28.629Z,39.33
2019-01-25T06:36:18.438Z,35.03
2019-01-25T06:39:09.928Z,37.67
2019-01-25T06:41:59.659Z,36.50
2019-01-25T06:44:49.411Z,39.43
2019-01-25T06:47:33.009Z,37.70
2019-01-25T06:50:22.731Z,36.00
2019-01-25T06:53:04.983Z,38.43
2019-01-25T06:55:54.761Z,44.17
2019-01-25T06:58:56.980Z,36.90
2019-01-25T07:02:05.587Z,36.33
2019-01-25T07:04:47.603Z,37.77
2019-01-25T07:13:37.425Z,38.80
2019-01-25T07:16:27.197Z,38.10
2019-01-25T07:19:09.338Z,39.70
2019-01-25T07:21:59.175Z,37.97
2019-01-25T07:24:49.437Z,38.73
2019-01-25T07:27:39.195Z,33.03
2019-01-25T07:30:29.008Z,41.30
2019-01-25T07:33:11.310Z,36.70
2019-01-25T07:36:01.169Z,40.70
2019-01-25T07:38:50.958Z,40.60
2019-01-25T07:41:40.761Z,39.57
2019-01-25T07:44:30.586Z,38.60
2019-01-25T07:47:20.423Z,40.00
2019-01-25T07:50:29.366Z,36.70
2019-01-25T07:53:37.925Z,41.20
2019-01-25T07:56:20.176Z,39.47
2019-01-25T08:02:13.620Z,37.30
2019-01-25T08:04:55.893Z,38.63
2019-01-25T08:07:45.686Z,43.60
2019-01-25T08:10:35.623Z,39.60
2019-01-25T08:13:25.460Z,40.03
2019-01-25T08:16:15.280Z,40.40
2019-01-25T08:18:58.632Z,38.43
2019-01-25T08:22:07.540Z,39.63
2019-01-25T08:24:38.630Z,38.03
2019-01-25T08:27:28.519Z,39.33
2019-01-25T08:30:12.003Z,42.47
2019-01-25T08:33:01.804Z,41.30
2019-01-25T08:35:44.057Z,40.23
2019-01-25T08:38:33.751Z,43.87
2019-01-25T08:41:16.628Z,40.70
2019-01-25T08:44:06.430Z,45.47
2019-01-25T08:46:48.799Z,41.80
2019-01-25T08:52:40.560Z,41.40
2019-01-25T08:55:30.275Z,41.10
2019-01-25T08:58:12.699Z,38.83
2019-01-25T09:01:02.488Z,43.87
2019-01-25T09:03:45.324Z,43.37
2019-01-25T09:06:35.069Z,39.17
2019-01-25T09:09:17.969Z,43.00
2019-01-25T09:12:07.724Z,42.40
2019-01-25T09:14:50.340Z,38.30
2019-01-25T09:17:40.110Z,42.07
2019-01-25T09:20:23.064Z,40.67
2019-01-25T09:23:12.800Z,40.03
2019-01-25T09:26:00.946Z,41.67
2019-01-25T09:28:46.564Z,41.13
2019-01-25T09:31:29.154Z,38.17
2019-01-25T09:34:18.909Z,39.53
2019-01-25T09:37:01.578Z,39.43
2019-01-25T09:39:51.307Z,44.07
2019-01-25T09:42:33.517Z,36.43
2019-01-25T09:45:23.371Z,37.70
2019-01-25T09:48:06.013Z,37.67
2019-01-25T09:50:36.766Z,40.00
2019-01-25T09:53:26.531Z,37.20
2019-01-25T09:56:08.629Z,40.90
2019-01-25T09:58:59.060Z,35.47
2019-01-25T10:01:48.878Z,38.43
2019-01-25T10:04:38.810Z,39.70
2019-01-25T10:07:28.634Z,36.73
2019-01-25T10:10:18.482Z,34.10
2019-01-25T10:13:08.296Z,36.27
2019-01-25T10:15:58.121Z,36.33
2019-01-25T10:21:56.701Z,38.30
2019-01-25T10:24:39.517Z,39.10
2019-01-25T10:30:16.585Z,37.47
2019-01-25T10:33:06.527Z,36.90
2019-01-25T10:35:53.123Z,33.67
2019-01-25T10:38:42.863Z,31.87
2019-01-25T10:41:25.079Z,36.93
2019-01-25T10:44:14.875Z,33.37
2019-01-25T10:46:58.217Z,33.37
2019-01-25T10:49:47.967Z,34.03
2019-01-25T10:52:30.181Z,34.10
2019-01-25T10:55:19.948Z,35.03
2019-01-25T10:58:02.600Z,34.97
2019-01-25T11:00:33.303Z,35.17
2019-01-25T11:03:23.024Z,36.00
2019-01-25T11:06:05.429Z,33.33
2019-01-25T11:08:55.275Z,39.60
2019-01-25T11:14:32.636Z,33.63
2019-01-25T11:17:22.398Z,31.00
2019-01-25T11:20:06.317Z,31.27
2019-01-25T11:22:56.192Z,30.07
2019-01-25T11:25:39.296Z,37.50
2019-01-25T11:28:29.011Z,39.80
2019-01-25T11:31:11.309Z,35.10
2019-01-25T11:34:01.061Z,36.20
2019-01-25T11:36:47.531Z,37.53
2019-01-25T11:39:37.316Z,32.53
2019-01-25T11:42:19.636Z,36.20
2019-01-25T11:45:10.515Z,35.03
2019-01-25T11:47:55.005Z,37.23
2019-01-25T11:50:44.782Z,35.73
2019-01-25T11:53:26.948Z,35.43
2019-01-25T11:56:16.712Z,37.43
2019-01-25T12:02:20.853Z,33.33
2019-01-25T12:08:18.767Z,33.87
2019-01-25T12:11:08.567Z,34.63
2019-01-25T12:13:52.257Z,36.17
2019-01-25T12:16:41.975Z,33.50
2019-01-25T12:19:23.911Z,36.33
2019-01-25T12:22:13.670Z,32.13
2019-01-25T12:24:57.020Z,31.23
2019-01-25T12:27:46.835Z,32.00
2019-01-25T12:36:34.054Z,25.60
2019-01-25T12:39:24.432Z,29.43
2019-01-25T12:42:14.183Z,34.03
2019-01-25T12:45:04.061Z,30.83
2019-01-25T12:47:53.823Z,30.77
2019-01-25T12:51:22.544Z,30.23
2019-01-25T12:57:04.005Z,32.73
2019-01-25T12:59:53.796Z,30.13
2019-01-25T13:02:38.086Z,30.13
2019-01-25T13:05:27.819Z,32.03
2019-01-25T13:08:10.980Z,30.60
2019-01-25T13:11:00.734Z,28.63
2019-01-25T13:13:45.601Z,30.07
2019-01-25T13:16:35.303Z,27.63
2019-01-25T13:19:17.805Z,27.33
2019-01-25T13:22:07.538Z,32.60
2019-01-25T13:24:49.834Z,24.53
2019-01-25T13:27:39.591Z,26.27
2019-01-25T13:30:22.820Z,20.67
2019-01-25T13:33:12.540Z,27.37
2019-01-25T13:36:01.476Z,22.90
2019-01-25T13:38:51.221Z,24.73
2019-01-25T13:41:38.098Z,21.57
2019-01-25T13:44:30.240Z,24.73
2019-01-25T13:47:13.106Z,25.20
2019-01-25T13:55:55.210Z,23.50
2019-01-25T13:58:45.072Z,25.03
2019-01-25T14:01:34.948Z,28.43
2019-01-25T14:04:17.489Z,26.97
2019-01-25T14:07:07.234Z,29.33
2019-01-25T14:09:49.517Z,25.43
2019-01-25T14:12:39.248Z,26.17
2019-01-25T14:18:21.537Z,19.60
2019-01-25T14:21:11.491Z,17.43
2019-01-25T14:23:56.914Z,15.20
2019-01-25T14:26:46.724Z,18.60
2019-01-25T14:29:29.447Z,19.83
2019-01-25T14:32:19.214Z,18.43
2019-01-25T14:35:09.106Z,21.00
2019-01-25T14:37:59.034Z,19.73
2019-01-25T14:40:48.840Z,19.57
2019-01-25T14:46:33.295Z,19.03
2019-01-25T14:52:06.429Z,21.23
2019-01-25T14:54:56.706Z,23.93
2019-01-25T14:57:43.415Z,20.70
2019-01-25T15:00:33.156Z,20.23
2019-01-25T15:03:15.689Z,20.00
2019-01-25T15:06:05.564Z,18.90
2019-01-25T15:08:47.629Z,20.00
2019-01-25T15:11:37.517Z,20.43
2019-01-25T15:14:19.684Z,19.57
2019-01-25T15:17:22.071Z,21.13
2019-01-25T15:20:05.671Z,16.97
2019-01-25T15:22:55.405Z,18.83
2019-01-25T15:25:37.313Z,16.97
2019-01-25T15:28:27.083Z,17.03
2019-01-25T15:31:09.561Z,20.17
2019-01-25T15:36:51.159Z,17.87
2019-01-25T15:39:41.873Z,21.93
2019-01-25T15:42:31.724Z,17.57
2019-01-25T15:48:03.495Z,19.87
2019-01-25T15:50:53.265Z,18.70
2019-01-25T15:53:43.045Z,18.13
2019-01-25T15:56:32.815Z,19.83
2019-01-25T15:59:19.615Z,15.17
2019-01-25T16:02:09.391Z,18.07
2019-01-25T16:04:55.705Z,17.30
2019-01-25T16:07:45.441Z,16.63
2019-01-25T16:10:27.973Z,15.80
2019-01-25T16:13:17.718Z,18.07
2019-01-25T16:16:01.593Z,16.00
2019-01-25T16:18:51.314Z,16.83
2019-01-25T16:21:33.664Z,15.37
2019-01-25T16:24:23.427Z,14.93
2019-01-25T16:27:05.739Z,17.30
2019-01-25T16:29:55.465Z,15.97
2019-01-25T16:32:37.949Z,15.67
2019-01-25T16:35:27.713Z,16.20
2019-01-25T16:38:10.009Z,16.27
2019-01-25T16:40:59.791Z,20.70
2019-01-25T16:43:47.241Z,15.90
2019-01-25T16:46:37.000Z,16.70
2019-01-25T16:49:20.400Z,17.33
2019-01-25T16:52:10.244Z,18.47
2019-01-25T16:54:52.845Z,19.93
2019-01-25T16:57:42.715Z,18.03
2019-01-25T17:00:36.174Z,19.17
2019-01-25T17:03:25.960Z,20.83
2019-01-25T17:06:07.914Z,19.63
2019-01-25T17:08:57.702Z,24.83
2019-01-25T17:11:39.966Z,24.03
2019-01-25T17:14:33.543Z,21.37
2019-01-25T17:17:14.056Z,20.87
2019-01-25T17:20:03.834Z,16.97
2019-01-25T17:22:53.545Z,18.40
2019-01-25T17:25:43.366Z,17.37
2019-01-25T17:28:33.170Z,15.00
2019-01-25T17:31:22.929Z,16.00
2019-01-25T17:34:12.710Z,18.83
2019-01-25T17:36:55.372Z,16.67
2019-01-25T17:39:45.214Z,17.90
2019-01-25T17:42:54.146Z,18.83
2019-01-25T17:45:43.968Z,18.83
2019-01-25T17:48:34.100Z,20.90
2019-01-25T17:51:23.873Z,21.03
2019-01-25T17:54:13.729Z,22.23
2019-01-25T17:57:03.804Z,21.10
2019-01-25T17:59:51.709Z,24.63
2019-01-25T18:02:35.391Z,25.23
2019-01-25T18:08:36.188Z,21.60
2019-01-25T18:11:22.826Z,22.47
2019-01-25T18:17:15.117Z,20.97
2019-01-25T18:20:05.594Z,19.17
2019-01-25T18:22:47.612Z,22.00
2019-01-25T18:26:15.473Z,21.03
2019-01-25T18:29:02.510Z,21.77
2019-01-25T18:31:52.274Z,20.07
2019-01-25T18:34:35.171Z,21.00
2019-01-25T18:37:24.916Z,23.23
2019-01-25T18:40:08.288Z,22.20
2019-01-25T18:42:58.026Z,24.80
2019-01-25T18:45:40.394Z,22.63
2019-01-25T18:48:30.109Z,21.70
2019-01-25T18:51:13.024Z,22.93
2019-01-25T18:54:02.772Z,20.17
2019-01-25T18:56:46.514Z,21.73
2019-01-25T18:59:36.268Z,21.07
2019-01-25T19:02:18.254Z,19.00
2019-01-25T19:05:08.880Z,19.00
2019-01-25T19:07:50.844Z,21.50
2019-01-25T19:10:40.631Z,25.03
2019-01-25T19:13:22.771Z,27.97
2019-01-25T19:16:12.513Z,31.00
2019-01-25T19:18:54.780Z,33.23
2019-01-25T19:21:44.562Z,29.57
2019-01-25T19:24:27.395Z,28.80
2019-01-25T19:27:17.237Z,25.77
2019-01-25T19:30:28.024Z,26.67
2019-01-25T19:33:17.836Z,26.03
2019-01-25T19:36:00.493Z,24.60
2019-01-25T19:38:50.272Z,24.87
2019-01-25T19:41:40.794Z,29.97
2019-01-25T19:44:24.156Z,25.57
2019-01-25T19:47:14.113Z,26.67
2019-01-25T19:50:04.044Z,30.10
2019-01-25T19:52:53.974Z,27.10
2019-01-25T19:55:43.771Z,23.90
2019-01-25T19:58:33.521Z,31.23
2019-01-25T20:01:16.057Z,29.17
2019-01-25T20:04:24.861Z,27.23
2019-01-25T20:07:14.662Z,26.17
2019-01-25T20:10:16.788Z,22.73
2019-01-25T20:12:59.280Z,21.60
2019-01-25T20:15:49.095Z,21.80
2019-01-25T20:18:38.873Z,25.03
2019-01-25T20:27:04.483Z,22.77
2019-01-25T20:29:54.237Z,23.67
2019-01-25T20:32:36.659Z,20.47
2019-01-25T20:35:28.865Z,19.63
2019-01-25T20:38:11.635Z,19.60
2019-01-25T20:41:01.410Z,19.07
2019-01-25T20:43:44.957Z,21.37
2019-01-25T20:46:34.699Z,18.83
2019-01-25T20:49:18.315Z,23.67
2019-01-25T20:52:08.087Z,20.97
2019-01-25T20:54:50.638Z,18.20
2019-01-25T20:57:40.383Z,20.93
2019-01-25T21:00:24.192Z,21.30
2019-01-25T21:03:15.858Z,20.60
2019-01-25T21:05:58.003Z,19.27
2019-01-25T21:08:47.777Z,19.03
2019-01-25T21:11:30.497Z,20.33
2019-01-25T21:14:20.322Z,20.23
2019-01-25T21:17:02.808Z,20.37
2019-01-25T21:19:52.542Z,19.93
2019-01-25T21:22:42.288Z,18.40
2019-01-25T21:25:24.663Z,20.67
2019-01-25T21:28:26.752Z,23.10
2019-01-25T21:30:57.495Z,21.37
2019-01-25T21:33:47.228Z,19.07
2019-01-25T21:36:29.348Z,22.80
2019-01-25T21:39:19.543Z,19.40
2019-01-25T21:42:01.578Z,18.70
2019-01-25T21:44:51.338Z,18.07
2019-01-25T21:47:33.248Z,18.53
2019-01-25T21:50:25.694Z,20.07
2019-01-25T21:53:08.138Z,15.60
2019-01-25T21:58:33.521Z,15.33
2019-01-25T22:01:23.424Z,15.60
2019-01-25T22:04:13.283Z,21.10
2019-01-25T22:09:59.184Z,18.10
2019-01-25T22:12:49.029Z,16.27
2019-01-25T22:15:31.263Z,16.83
2019-01-25T22:18:20.963Z,15.37
2019-01-25T22:21:03.787Z,17.67
2019-01-25T22:23:53.551Z,17.30
2019-01-25T22:26:36.162Z,17.47
2019-01-25T22:29:25.901Z,15.67
2019-01-25T22:32:15.637Z,14.73
2019-01-25T22:37:56.869Z,19.93
2019-01-25T22:40:33.183Z,16.60
2019-01-25T22:43:05.432Z,16.43
2019-01-25T22:45:50.495Z,19.33
2019-01-25T22:48:33.571Z,15.90
2019-01-25T22:51:23.393Z,18.23
2019-01-25T22:57:16.986Z,16.73
2019-01-25T22:59:59.806Z,14.67
2019-01-25T23:02:49.579Z,21.13
2019-01-25T23:06:17.587Z,16.93
2019-01-25T23:09:40.012Z,15.47
2019-01-25T23:12:10.958Z,15.83
2019-01-25T23:15:00.705Z,15.87
2019-01-25T23:17:50.483Z,13.43
2019-01-25T23:20:33.123Z,15.50
2019-01-25T23:23:22.845Z,14.67
2019-01-25T23:26:05.359Z,14.93
2019-01-25T23:28:55.107Z,15.10
2019-01-25T23:31:37.717Z,14.83
2019-01-25T23:34:27.667Z,14.07
2019-01-25T23:37:10.031Z,13.87
2019-01-25T23:39:59.791Z,14.43
2019-01-25T23:42:42.197Z,15.30
2019-01-25T23:45:32.055Z,13.70
2019-01-25T23:48:14.405Z,12.90
2019-01-25T23:51:04.135Z,14.53
2019-01-25T23:53:46.302Z,14.33
2019-01-25T23:59:28.256Z,12.00
